Sunday, June 24, 2018, 11:10 PM CDT
Back to Local

KBTR, Baton Rouge Metro Ryan Field

Location: Baton Rouge, LA, United States Lat: 30.533
Local Time: 11:10 PM CDT ( 4:10 GMT) Lon: -91.15
Time Zone: US/Central Elev: 68 ft

Show me the last for .
Show Decoded

2018-06-24 22:53 METAR KBTR 250353Z 19004KT 10SM CLR 28/24 A3002 RMK AO2 SLP162 T02780239 =
2018-06-24 21:53 METAR KBTR 250253Z 20006KT 10SM CLR 28/24 A2999 RMK AO2 SLP154 T02830239 51015 =
2018-06-24 20:53 METAR KBTR 250153Z 22008KT 10SM CLR 29/23 A2998 RMK AO2 SLP151 T02940233 =
2018-06-24 20:42 METAR KBTR 250142Z 23008KT 10SM FEW003 29/23 A2998 RMK AO2 T02940233 =
2018-06-24 19:53 METAR KBTR 250053Z 21011KT 10SM SCT045 31/23 A2995 RMK AO2 SLP142 T03060228 =
2018-06-24 18:53 METAR KBTR 242353Z 22007KT 10SM BKN043 32/23 A2995 RMK AO2 SLP138 60000
                 T03220228 10339 20283 55006 =
2018-06-24 17:53 METAR KBTR 242253Z 18012KT 10SM BKN047 33/23 A2994 RMK AO2 SLP138 T03330228 =
2018-06-24 16:53 METAR KBTR 242153Z 21012KT 10SM SCT049 BKN060 33/23 A2995 RMK AO2 TSE49 SLP140
                 T03280228 =
2018-06-24 15:53 METAR KBTR 242053Z 17010KT 10SM TS SCT048 33/22 A2996 RMK AO2 LTG DSNT N AND NE
                 SLP145 60000 T03280222 58011 =
2018-06-24 14:53 METAR KBTR 241953Z 13003KT 10SM TS BKN045 BKN060 32/24 A2998 RMK AO2 WSHFT 1918
                 LTG DSNT NE RAB23E39 TSB17 SLP150 P0000 T03220239 =
2018-06-24 14:38 METAR KBTR 241938Z 12006KT 10SM -TSRA BKN045 BKN060 29/24 A2998 RMK AO2 WSHFT
                 1918 LTG DSNT N RAB23 TSB17 P0000 T02940239 =
2018-06-24 14:18 METAR KBTR 241918Z 19011KT 10SM TS BKN045 BKN060 32/23 A2998 RMK AO2 TSB17
                 T03220233 =
2018-06-24 14:11 METAR KBTR 241911Z COR 21010KT 10SM BKN045 BKN060 33/23 A2998 =
2018-06-24 13:53 METAR KBTR 241853Z 20009KT 10SM VCTS BKN049 BKN060 32/23 A2998 RMK AO2 SLP150
                 T03220228 =
2018-06-24 12:53 METAR KBTR 241753Z 20010KT 10SM BKN046 33/22 A3000 RMK AO2 SLP156 60000
                 T03280222 10333 20261 50001 =
2018-06-24 11:53 METAR KBTR 241653Z COR 19012KT 10SM SCT035 33/23 A3000 RMK AO2 SLP156 T03280233
                 =
2018-06-24 10:53 METAR KBTR 241553Z 22009KT 10SM SCT033 SCT042 SCT050 31/23 A3000 RMK AO2 SLP158
                 T03110233 =
2018-06-24 09:53 METAR KBTR 241453Z 22007KT 10SM BKN020 29/24 A2999 RMK AO2 SLP155 60000
                 T02940239 52008 =
2018-06-24 08:53 METAR KBTR 241353Z 21008G14KT 180V250 9SM BKN016 BKN020 BKN028 29/25 A2999 RMK
                 AO2 SLP154 T02940250 =
2018-06-24 08:20 METAR KBTR 241320Z 17010KT 8SM SCT016 BKN020 BKN028 29/26 A2998 =
2018-06-24 07:56 METAR KBTR 241256Z 16007KT 7SM FEW012 SCT018 SCT024 28/26 A2997 RMK AO2
                 T02780256 =
2018-06-24 07:53 METAR KBTR 241253Z COR 17007KT 7SM FEW012 SCT018 SCT024 28/26 A2997 RMK AO2
                 RAB18E27 SLP148 P0000 T02780256 =
2018-06-24 06:53 METAR KBTR 241153Z 15004KT 6SM BR BKN016 BKN022 27/25 A2997 RMK AO2 SLP147
                 T02670250 10267 20256 51006 =
2018-06-24 06:51 METAR KBTR 241151Z 13004KT 6SM BR BKN018 BKN024 26/25 A2997 RMK AO2 =
2018-06-24 05:53 METAR KBTR 241053Z 14006KT 7SM BKN010 BKN021 26/25 A2996 RMK AO2 SLP142
                 T02610250 =
2018-06-24 04:53 METAR KBTR 240953Z 16004KT 8SM BKN015 BKN020 26/24 A2995 RMK AO2 SLP140
                 T02610244 =
2018-06-24 04:09 METAR KBTR 240909Z AUTO 00000KT 8SM BKN019 26/24 A2995 RMK AO2 T02610244 =
2018-06-24 03:53 METAR KBTR 240853Z AUTO 15004KT 9SM SCT019 26/24 A2995 RMK AO2 SLP140 T02560244
                 51012 =
2018-06-24 02:53 METAR KBTR 240753Z AUTO 15004KT 10SM CLR 26/24 A2994 RMK AO2 SLP138 T02610244 =
2018-06-24 01:53 METAR KBTR 240653Z AUTO 16005KT 10SM CLR 26/24 A2994 RMK AO2 SLP136 T02610244 =
2018-06-24 00:53 METAR KBTR 240553Z AUTO 17008KT 10SM CLR 27/24 A2992 RMK AO2 SLP128 T02670244
                 10317 20267 403390256 58001 =
2018-06-23 23:53 METAR KBTR 240453Z AUTO 18007KT 10SM CLR 27/24 A2993 RMK AO2 SLP133 T02670239 =

Support USWX by starting your Amazon purchase here.